createdAt,value
2017-09-30T00:00:27.275Z,20.83
2017-09-30T00:02:54.907Z,20.83
2017-09-30T00:05:22.498Z,20.86
2017-09-30T00:07:50.129Z,20.75
2017-09-30T00:10:17.733Z,20.71
2017-09-30T00:12:45.358Z,20.75
2017-09-30T00:15:13.055Z,20.81
2017-09-30T00:17:40.670Z,20.76
2017-09-30T00:20:08.276Z,20.78
2017-09-30T00:22:35.917Z,20.83
2017-09-30T00:25:03.502Z,20.83
2017-09-30T00:27:31.131Z,20.84
2017-09-30T00:29:58.740Z,20.85
2017-09-30T00:32:26.370Z,20.77
2017-09-30T00:34:54.014Z,20.69
2017-09-30T00:37:21.657Z,20.62
2017-09-30T00:39:49.257Z,20.61
2017-09-30T00:42:16.899Z,20.68
2017-09-30T00:44:44.498Z,20.69
2017-09-30T00:47:12.096Z,20.71
2017-09-30T00:49:39.731Z,20.73
2017-09-30T00:52:07.528Z,20.70
2017-09-30T00:54:35.131Z,20.67
2017-09-30T00:57:02.745Z,20.71
2017-09-30T00:59:30.380Z,20.71
2017-09-30T01:01:58.011Z,20.65
2017-09-30T01:04:25.646Z,20.63
2017-09-30T01:06:53.243Z,20.65
2017-09-30T01:09:20.870Z,20.65
2017-09-30T01:11:48.556Z,20.66
2017-09-30T01:14:16.172Z,20.61
2017-09-30T01:16:43.799Z,20.61
2017-09-30T01:19:11.433Z,20.58
2017-09-30T01:21:39.036Z,20.55
2017-09-30T01:24:06.654Z,20.58
2017-09-30T01:26:34.255Z,20.59
2017-09-30T01:29:01.890Z,20.59
2017-09-30T01:31:29.503Z,20.60
2017-09-30T01:33:57.110Z,20.56
2017-09-30T01:36:24.768Z,20.47
2017-09-30T01:38:52.374Z,20.43
2017-09-30T01:41:20.011Z,20.35
2017-09-30T01:43:47.610Z,20.38
2017-09-30T01:46:15.255Z,20.43
2017-09-30T01:48:42.873Z,20.49
2017-09-30T01:51:10.658Z,20.54
2017-09-30T01:53:38.259Z,20.53
2017-09-30T01:56:05.897Z,20.49
2017-09-30T01:58:33.482Z,20.37
2017-09-30T02:01:01.122Z,20.20
2017-09-30T02:03:28.748Z,19.76
2017-09-30T02:05:56.370Z,19.38
2017-09-30T02:08:23.951Z,19.09
2017-09-30T02:10:51.569Z,18.79
2017-09-30T02:13:19.178Z,18.77
2017-09-30T02:15:46.833Z,18.81
2017-09-30T02:18:14.431Z,18.53
2017-09-30T02:20:42.010Z,18.56
2017-09-30T02:23:09.626Z,18.60
2017-09-30T02:25:37.235Z,18.45
2017-09-30T02:28:04.864Z,18.54
2017-09-30T02:30:32.455Z,18.66
2017-09-30T02:33:00.084Z,18.70
2017-09-30T02:35:27.677Z,18.73
2017-09-30T02:37:55.502Z,18.81
2017-09-30T02:40:23.094Z,18.92
2017-09-30T02:42:50.715Z,18.98
2017-09-30T02:45:18.302Z,19.04
2017-09-30T02:47:45.928Z,19.09
2017-09-30T02:50:13.515Z,19.14
2017-09-30T02:52:41.164Z,19.12
2017-09-30T02:55:08.789Z,19.09
2017-09-30T02:57:36.411Z,19.04
2017-09-30T03:00:03.998Z,19.03
2017-09-30T03:02:31.587Z,19.05
2017-09-30T03:04:59.369Z,19.08
2017-09-30T03:07:26.973Z,19.12
2017-09-30T03:09:54.607Z,19.13
2017-09-30T03:12:22.198Z,19.14
2017-09-30T03:14:49.946Z,19.16
2017-09-30T03:17:17.538Z,19.06
2017-09-30T03:19:45.181Z,18.90
2017-09-30T03:22:12.776Z,18.85
2017-09-30T03:24:40.631Z,18.71
2017-09-30T03:27:08.247Z,18.69
2017-09-30T03:29:35.841Z,18.52
2017-09-30T03:32:03.572Z,18.44
2017-09-30T03:34:31.166Z,18.45
2017-09-30T03:36:58.806Z,18.39
2017-09-30T03:39:26.398Z,18.26
2017-09-30T03:41:54.022Z,18.22
2017-09-30T03:44:21.702Z,18.22
2017-09-30T03:46:49.329Z,18.21
2017-09-30T03:49:16.921Z,18.19
2017-09-30T03:51:44.561Z,18.17
2017-09-30T03:54:12.163Z,18.12
2017-09-30T03:56:39.787Z,18.11
2017-09-30T03:59:07.518Z,18.11
2017-09-30T04:01:35.138Z,18.10
2017-09-30T04:04:02.738Z,18.05
2017-09-30T04:06:30.380Z,18.09
2017-09-30T04:08:57.971Z,18.13
2017-09-30T04:11:25.602Z,18.14
2017-09-30T04:13:53.197Z,18.08
2017-09-30T04:16:20.813Z,18.18
2017-09-30T04:18:48.450Z,18.22
2017-09-30T04:21:16.071Z,18.22
2017-09-30T04:23:43.754Z,18.19
2017-09-30T04:26:11.348Z,18.31
2017-09-30T04:28:39.071Z,18.44
2017-09-30T04:31:06.669Z,18.45
2017-09-30T04:33:34.287Z,18.51
2017-09-30T04:36:01.894Z,18.52
2017-09-30T04:38:29.519Z,18.59
2017-09-30T04:40:57.130Z,18.54
2017-09-30T04:43:24.879Z,18.42
2017-09-30T04:45:52.466Z,18.35
2017-09-30T04:48:20.092Z,18.32
2017-09-30T04:50:47.689Z,18.27
2017-09-30T04:53:15.319Z,18.31
2017-09-30T04:55:42.978Z,18.35
2017-09-30T04:58:10.719Z,18.32
2017-09-30T05:00:38.318Z,18.25
2017-09-30T05:03:05.946Z,18.17
2017-09-30T05:05:33.547Z,18.17
2017-09-30T05:08:01.190Z,18.03
2017-09-30T05:10:28.771Z,18.03
2017-09-30T05:12:56.423Z,18.09
2017-09-30T05:15:24.019Z,18.16
2017-09-30T05:17:51.695Z,18.23
2017-09-30T05:20:19.298Z,18.16
2017-09-30T05:22:46.937Z,18.05
2017-09-30T05:25:14.551Z,17.99
2017-09-30T05:27:42.159Z,17.99
2017-09-30T05:30:09.762Z,18.00
2017-09-30T05:32:37.417Z,18.10
2017-09-30T05:35:05.027Z,18.21
2017-09-30T05:37:32.687Z,18.24
2017-09-30T05:40:00.292Z,18.27
2017-09-30T05:42:27.903Z,18.29
2017-09-30T05:44:55.556Z,18.31
2017-09-30T05:47:23.195Z,18.28
2017-09-30T05:49:50.889Z,18.28
2017-09-30T05:52:18.536Z,18.29
2017-09-30T05:54:46.138Z,18.27
2017-09-30T05:57:13.788Z,18.25
2017-09-30T05:59:41.397Z,18.25
2017-09-30T06:02:09.098Z,18.16
2017-09-30T06:04:36.707Z,18.11
2017-09-30T06:07:04.417Z,18.14
2017-09-30T06:09:32.046Z,18.20
2017-09-30T06:11:59.684Z,18.13
2017-09-30T06:14:27.275Z,18.12
2017-09-30T06:16:54.874Z,18.06
2017-09-30T06:19:22.503Z,18.05
2017-09-30T06:21:50.106Z,18.10
2017-09-30T06:24:17.764Z,18.07
2017-09-30T06:26:45.342Z,17.96
2017-09-30T06:29:12.977Z,17.85
2017-09-30T06:31:40.578Z,17.82
2017-09-30T06:34:08.238Z,17.80
2017-09-30T06:36:35.902Z,17.82
2017-09-30T06:39:04.250Z,17.93
2017-09-30T06:41:31.835Z,18.04
2017-09-30T06:43:59.470Z,18.16
2017-09-30T06:46:27.092Z,18.28
2017-09-30T06:48:54.698Z,18.37
2017-09-30T06:51:22.347Z,18.39
2017-09-30T06:53:49.989Z,18.43
2017-09-30T06:56:17.636Z,18.47
2017-09-30T06:58:45.228Z,18.47
2017-09-30T07:01:12.873Z,18.49
2017-09-30T07:03:40.494Z,18.29
2017-09-30T07:06:08.226Z,18.22
2017-09-30T07:08:35.827Z,18.19
2017-09-30T07:11:03.462Z,18.17
2017-09-30T07:13:31.106Z,18.08
2017-09-30T07:15:58.736Z,18.01
2017-09-30T07:18:26.333Z,17.88
2017-09-30T07:20:53.978Z,17.80
2017-09-30T07:23:21.637Z,17.85
2017-09-30T07:25:49.228Z,17.90
2017-09-30T07:28:16.880Z,17.95
2017-09-30T07:30:44.570Z,18.01
2017-09-30T07:33:12.202Z,17.97
2017-09-30T07:35:39.804Z,17.94
2017-09-30T07:38:07.448Z,17.86
2017-09-30T07:40:35.067Z,17.85
2017-09-30T07:43:02.711Z,17.87
2017-09-30T07:45:30.327Z,17.87
2017-09-30T07:47:57.974Z,17.78
2017-09-30T07:50:25.573Z,17.80
2017-09-30T07:52:53.997Z,17.76
2017-09-30T07:55:21.617Z,17.76
2017-09-30T07:57:49.270Z,17.79
2017-09-30T08:00:16.890Z,17.82
2017-09-30T08:02:44.550Z,17.83
2017-09-30T08:05:12.168Z,17.84
2017-09-30T08:07:39.806Z,17.75
2017-09-30T08:10:07.425Z,17.73
2017-09-30T08:12:35.171Z,17.77
2017-09-30T08:15:02.817Z,17.79
2017-09-30T08:17:30.578Z,17.73
2017-09-30T08:19:58.198Z,17.72
2017-09-30T08:22:25.845Z,17.77
2017-09-30T08:24:53.450Z,17.81
2017-09-30T08:27:21.227Z,17.78
2017-09-30T08:29:48.827Z,17.83
2017-09-30T08:32:16.437Z,17.88
2017-09-30T08:34:44.197Z,17.95
2017-09-30T08:37:11.799Z,17.90
2017-09-30T08:39:39.434Z,17.92
2017-09-30T08:42:07.170Z,17.87
2017-09-30T08:44:34.801Z,17.86
2017-09-30T08:47:02.413Z,17.86
2017-09-30T08:49:30.070Z,17.89
2017-09-30T08:51:57.733Z,17.94
2017-09-30T08:54:25.366Z,17.97
2017-09-30T08:56:53.129Z,17.95
2017-09-30T08:59:20.782Z,18.02
2017-09-30T09:01:48.395Z,18.03
2017-09-30T09:04:16.072Z,17.99
2017-09-30T09:06:43.829Z,17.97
2017-09-30T09:09:11.760Z,18.00
2017-09-30T09:11:39.509Z,17.93
2017-09-30T09:14:07.142Z,17.92
2017-09-30T09:16:34.754Z,17.87
2017-09-30T09:19:02.431Z,17.86
2017-09-30T09:21:30.362Z,17.87
2017-09-30T09:23:58.034Z,17.88
2017-09-30T09:26:25.639Z,17.96
2017-09-30T09:28:53.271Z,17.97
2017-09-30T09:31:21.183Z,17.98
2017-09-30T09:33:48.919Z,18.00
2017-09-30T09:36:16.547Z,18.03
2017-09-30T09:38:44.167Z,17.98
2017-09-30T09:41:11.973Z,17.94
2017-09-30T09:43:39.595Z,17.96
2017-09-30T09:46:07.229Z,17.96
2017-09-30T09:48:34.837Z,17.86
2017-09-30T09:51:02.502Z,17.86
2017-09-30T09:53:30.122Z,17.87
2017-09-30T09:55:57.731Z,17.84
2017-09-30T09:58:25.380Z,17.89
2017-09-30T10:00:52.984Z,17.85
2017-09-30T10:03:20.899Z,17.86
2017-09-30T10:05:48.583Z,17.83
2017-09-30T10:08:20.870Z,17.57
2017-09-30T10:10:54.758Z,17.38
2017-09-30T10:13:28.743Z,17.26
2017-09-30T10:15:57.576Z,17.14
2017-09-30T10:21:02.045Z,16.94
2017-09-30T10:23:30.351Z,16.94
2017-09-30T10:26:02.247Z,16.90
2017-09-30T10:28:32.216Z,16.89
2017-09-30T10:31:00.366Z,16.73
2017-09-30T10:33:28.646Z,16.63
2017-09-30T10:35:56.823Z,16.59
2017-09-30T10:38:25.077Z,16.67
2017-09-30T10:40:54.418Z,16.64
2017-09-30T10:43:23.059Z,16.61
2017-09-30T10:45:50.709Z,16.62
2017-09-30T10:48:18.375Z,16.64
2017-09-30T10:50:46.918Z,16.62
2017-09-30T10:53:14.548Z,16.39
2017-09-30T10:55:42.302Z,16.25
2017-09-30T10:58:09.931Z,16.20
2017-09-30T11:00:37.579Z,16.21
2017-09-30T11:03:05.199Z,16.15
2017-09-30T11:05:32.871Z,16.10
2017-09-30T11:08:00.476Z,15.97
2017-09-30T11:10:29.131Z,15.95
2017-09-30T11:12:56.782Z,15.97
2017-09-30T11:15:24.640Z,16.01
2017-09-30T11:17:52.275Z,16.08
2017-09-30T11:20:19.897Z,16.13
2017-09-30T11:22:47.574Z,16.22
2017-09-30T11:25:15.376Z,16.29
2017-09-30T11:27:43.100Z,16.36
2017-09-30T11:30:10.726Z,16.40
2017-09-30T11:32:38.380Z,16.47
2017-09-30T11:35:05.996Z,16.41
2017-09-30T11:37:33.731Z,16.56
2017-09-30T11:40:01.345Z,16.57
2017-09-30T11:42:29.009Z,16.46
2017-09-30T11:44:56.648Z,16.47
2017-09-30T11:47:24.255Z,16.53
2017-09-30T11:49:51.950Z,16.58
2017-09-30T11:52:19.554Z,16.60
2017-09-30T11:54:47.203Z,16.57
2017-09-30T11:57:14.909Z,16.60
2017-09-30T11:59:43.090Z,16.63
2017-09-30T12:02:10.741Z,16.65
2017-09-30T12:04:38.392Z,16.65
2017-09-30T12:07:06.030Z,16.75
2017-09-30T12:09:33.939Z,16.80
2017-09-30T12:12:01.709Z,16.77
2017-09-30T12:14:29.373Z,16.66
2017-09-30T12:16:57.015Z,16.63
2017-09-30T12:19:24.640Z,16.61
2017-09-30T12:21:52.295Z,16.61
2017-09-30T12:24:20.108Z,16.52
2017-09-30T12:26:47.747Z,16.49
2017-09-30T12:29:15.418Z,16.61
2017-09-30T12:31:43.069Z,16.58
2017-09-30T12:34:10.733Z,16.60
2017-09-30T12:36:38.332Z,16.63
2017-09-30T12:39:05.974Z,16.59
2017-09-30T12:41:33.609Z,16.58
2017-09-30T12:44:01.290Z,16.41
2017-09-30T12:46:28.890Z,16.32
2017-09-30T12:48:56.574Z,16.36
2017-09-30T12:51:24.439Z,16.42
2017-09-30T12:53:52.168Z,16.33
2017-09-30T12:56:19.774Z,16.21
2017-09-30T12:58:47.408Z,16.15
2017-09-30T13:01:15.006Z,16.01
2017-09-30T13:03:42.820Z,15.95
2017-09-30T13:06:10.419Z,15.97
2017-09-30T13:08:39.110Z,15.93
2017-09-30T13:11:06.826Z,15.90
2017-09-30T13:13:34.463Z,15.85
2017-09-30T13:16:02.080Z,15.84
2017-09-30T13:18:29.735Z,15.88
2017-09-30T13:20:57.341Z,15.80
2017-09-30T13:23:24.967Z,15.72
2017-09-30T13:25:52.626Z,15.63
2017-09-30T13:28:20.221Z,15.64
2017-09-30T13:30:47.855Z,15.56
2017-09-30T13:33:15.451Z,15.58
2017-09-30T13:35:43.106Z,15.57
2017-09-30T13:38:10.757Z,15.46
2017-09-30T13:40:38.424Z,15.44
2017-09-30T13:43:06.030Z,15.46
2017-09-30T13:45:33.683Z,15.44
2017-09-30T13:48:01.292Z,15.36
2017-09-30T13:50:28.942Z,15.38
2017-09-30T13:52:56.604Z,15.43
2017-09-30T13:55:24.276Z,15.39
2017-09-30T13:57:51.887Z,15.35
2017-09-30T14:00:19.525Z,15.30
2017-09-30T14:02:47.147Z,15.33
2017-09-30T14:05:14.794Z,15.33
2017-09-30T14:07:42.503Z,15.22
2017-09-30T14:10:10.150Z,15.24
2017-09-30T14:12:37.789Z,15.22
2017-09-30T14:15:05.397Z,15.22
2017-09-30T14:17:33.034Z,15.24
2017-09-30T14:20:00.634Z,15.22
2017-09-30T14:22:28.273Z,15.24
2017-09-30T14:24:56.011Z,15.27
2017-09-30T14:27:24.388Z,15.34
2017-09-30T14:29:52.001Z,15.35
2017-09-30T14:32:19.657Z,15.32
2017-09-30T14:34:47.364Z,15.28
2017-09-30T14:37:14.971Z,15.23
2017-09-30T14:39:43.614Z,15.20
2017-09-30T14:42:11.250Z,15.16
2017-09-30T14:44:38.868Z,15.14
2017-09-30T14:47:06.516Z,15.17
2017-09-30T14:49:34.152Z,15.15
2017-09-30T14:52:01.786Z,15.17
2017-09-30T14:54:29.435Z,15.20
2017-09-30T14:56:57.067Z,15.23
2017-09-30T14:59:24.657Z,15.29
2017-09-30T15:01:52.290Z,15.20
2017-09-30T15:04:19.885Z,15.23
2017-09-30T15:06:47.527Z,15.23
2017-09-30T15:09:15.140Z,15.20
2017-09-30T15:11:42.783Z,15.23
2017-09-30T15:14:10.389Z,15.19
2017-09-30T15:16:38.046Z,15.20
2017-09-30T15:19:05.681Z,15.26
2017-09-30T15:21:33.317Z,15.27
2017-09-30T15:24:00.936Z,15.26
2017-09-30T15:26:28.600Z,15.20
2017-09-30T15:28:56.215Z,15.16
2017-09-30T15:31:23.885Z,15.14
2017-09-30T15:33:51.666Z,15.14
2017-09-30T15:36:19.303Z,15.10
2017-09-30T15:38:46.960Z,15.01
2017-09-30T15:41:14.740Z,15.00
2017-09-30T15:43:42.399Z,14.98
2017-09-30T15:46:10.032Z,14.79
2017-09-30T15:48:37.689Z,14.76
2017-09-30T15:51:05.398Z,14.69
2017-09-30T15:53:33.024Z,14.71
2017-09-30T15:56:00.662Z,14.66
2017-09-30T15:58:28.292Z,14.64
2017-09-30T16:00:55.996Z,14.75
2017-09-30T16:03:23.660Z,14.80
2017-09-30T16:05:51.431Z,14.82
2017-09-30T16:08:19.074Z,14.79
2017-09-30T16:10:46.750Z,14.82
2017-09-30T16:13:14.415Z,14.77
2017-09-30T16:15:42.042Z,14.78
2017-09-30T16:18:09.676Z,14.79
2017-09-30T16:20:37.337Z,14.81
2017-09-30T16:23:04.953Z,14.87
2017-09-30T16:25:32.692Z,14.94
2017-09-30T16:28:00.451Z,14.96
2017-09-30T16:30:28.108Z,15.01
2017-09-30T16:32:55.958Z,15.07
2017-09-30T16:35:23.673Z,15.13
2017-09-30T16:37:51.369Z,15.18
2017-09-30T16:40:19.011Z,15.22
2017-09-30T16:42:46.690Z,15.25
2017-09-30T16:45:14.430Z,15.28
2017-09-30T16:47:42.078Z,15.25
2017-09-30T16:50:09.686Z,15.18
2017-09-30T16:52:37.386Z,15.22
2017-09-30T16:55:05.011Z,15.17
2017-09-30T16:57:32.663Z,15.20
2017-09-30T17:00:00.320Z,15.26
2017-09-30T17:02:27.993Z,15.30
2017-09-30T17:04:55.618Z,15.34
2017-09-30T17:07:23.234Z,15.37
2017-09-30T17:09:50.894Z,15.34
2017-09-30T17:12:18.503Z,15.30
2017-09-30T17:14:46.147Z,15.25
2017-09-30T17:17:13.764Z,15.26
2017-09-30T17:19:41.452Z,15.30
2017-09-30T17:22:09.070Z,15.32
2017-09-30T17:24:36.703Z,15.29
2017-09-30T17:27:04.358Z,15.28
2017-09-30T17:29:32.018Z,15.32
2017-09-30T17:31:59.653Z,15.36
2017-09-30T17:34:27.399Z,15.37
2017-09-30T17:36:55.038Z,15.33
2017-09-30T17:39:22.619Z,15.31
2017-09-30T17:41:50.286Z,15.33
2017-09-30T17:44:17.899Z,15.31
2017-09-30T17:46:45.519Z,15.19
2017-09-30T17:49:13.143Z,15.16
2017-09-30T17:51:40.782Z,15.16
2017-09-30T17:54:08.587Z,15.17
2017-09-30T17:56:36.272Z,15.13
2017-09-30T17:59:03.878Z,15.12
2017-09-30T18:01:31.526Z,15.15
2017-09-30T18:03:59.128Z,15.21
2017-09-30T18:06:26.763Z,15.24
2017-09-30T18:08:54.367Z,15.29
2017-09-30T18:11:22.013Z,15.29
2017-09-30T18:13:49.637Z,15.26
2017-09-30T18:16:17.294Z,15.15
2017-09-30T18:18:44.942Z,15.00
2017-09-30T18:21:12.606Z,14.87
2017-09-30T18:23:40.236Z,14.84
2017-09-30T18:26:07.885Z,14.74
2017-09-30T18:28:35.566Z,14.61
2017-09-30T18:31:03.202Z,14.62
2017-09-30T18:33:30.815Z,14.70
2017-09-30T18:35:58.618Z,14.78
2017-09-30T18:38:26.307Z,14.86
2017-09-30T18:40:54.002Z,14.87
2017-09-30T18:43:21.653Z,14.90
2017-09-30T18:45:49.318Z,14.93
2017-09-30T18:48:16.926Z,14.85
2017-09-30T18:50:46.539Z,14.79
2017-09-30T18:53:14.183Z,14.74
2017-09-30T18:55:41.817Z,14.74
2017-09-30T18:58:09.424Z,14.79
2017-09-30T19:00:37.080Z,14.82
2017-09-30T19:03:04.843Z,14.70
2017-09-30T19:05:32.578Z,14.71
2017-09-30T19:08:00.255Z,14.68
2017-09-30T19:10:27.902Z,14.70
2017-09-30T19:12:55.574Z,14.71
2017-09-30T19:15:23.213Z,14.67
2017-09-30T19:17:50.832Z,14.53
2017-09-30T19:20:18.499Z,14.51
2017-09-30T19:22:46.129Z,14.52
2017-09-30T19:25:13.794Z,14.55
2017-09-30T19:27:41.403Z,14.58
2017-09-30T19:30:09.016Z,14.59
2017-09-30T19:32:36.643Z,14.62
2017-09-30T19:35:04.355Z,14.65
2017-09-30T19:37:31.981Z,14.65
2017-09-30T19:39:59.645Z,14.63
2017-09-30T19:42:27.306Z,14.63
2017-09-30T19:44:54.950Z,14.63
2017-09-30T19:47:22.843Z,14.62
2017-09-30T19:49:50.437Z,14.59
2017-09-30T19:52:18.145Z,14.57
2017-09-30T19:54:45.761Z,14.48
2017-09-30T19:57:13.612Z,14.42
2017-09-30T19:59:41.239Z,14.47
2017-09-30T20:02:09.050Z,14.46
2017-09-30T20:04:36.663Z,14.44
2017-09-30T20:07:04.389Z,14.48
2017-09-30T20:09:32.029Z,14.50
2017-09-30T20:11:59.865Z,14.45
2017-09-30T20:14:27.526Z,14.27
2017-09-30T20:16:55.196Z,14.34
2017-09-30T20:19:22.834Z,14.31
2017-09-30T20:21:50.506Z,14.29
2017-09-30T20:24:18.132Z,14.32
2017-09-30T20:26:45.758Z,14.35
2017-09-30T20:29:13.391Z,14.40
2017-09-30T20:31:41.025Z,14.41
2017-09-30T20:34:08.654Z,14.38
2017-09-30T20:36:36.343Z,14.61
2017-09-30T20:39:03.974Z,14.95
2017-09-30T20:41:31.821Z,15.36
2017-09-30T20:44:00.564Z,15.75
2017-09-30T20:46:28.233Z,16.25
2017-09-30T20:48:55.895Z,16.86
2017-09-30T20:51:23.572Z,17.46
2017-09-30T20:53:51.165Z,17.91
2017-09-30T20:58:52.806Z,19.93
2017-09-30T21:01:20.472Z,19.96
2017-09-30T21:03:48.155Z,19.68
2017-09-30T21:06:15.798Z,19.68
2017-09-30T21:08:43.446Z,19.64
2017-09-30T21:11:11.051Z,19.52
2017-09-30T21:13:38.724Z,19.12
2017-09-30T21:16:06.330Z,18.64
2017-09-30T21:18:33.988Z,18.20
2017-09-30T21:21:01.634Z,17.76
2017-09-30T21:23:29.259Z,17.33
2017-09-30T21:25:56.874Z,16.99
2017-09-30T21:28:24.508Z,16.66
2017-09-30T21:30:52.119Z,16.40
2017-09-30T21:33:19.784Z,16.17
2017-09-30T21:35:47.394Z,15.98
2017-09-30T21:38:15.058Z,15.76
2017-09-30T21:40:42.704Z,15.59
2017-09-30T21:43:10.334Z,15.61
2017-09-30T21:45:37.974Z,15.51
2017-09-30T21:48:05.562Z,15.36
2017-09-30T21:50:33.419Z,15.22
2017-09-30T21:53:01.039Z,15.00
2017-09-30T21:55:28.693Z,14.83
2017-09-30T21:57:56.298Z,14.75
2017-09-30T22:00:24.022Z,14.63
2017-09-30T22:02:51.802Z,14.53
2017-09-30T22:05:19.435Z,14.45
2017-09-30T22:07:47.058Z,14.38
2017-09-30T22:10:14.696Z,14.27
2017-09-30T22:12:42.551Z,14.18
2017-09-30T22:15:10.205Z,14.17
2017-09-30T22:17:37.803Z,13.99
2017-09-30T22:20:05.419Z,13.95
2017-09-30T22:22:33.045Z,13.90
2017-09-30T22:25:00.714Z,13.88
2017-09-30T22:27:28.330Z,13.84
2017-09-30T22:29:56.010Z,13.83
2017-09-30T22:32:23.698Z,13.84
2017-09-30T22:34:51.359Z,13.74
2017-09-30T22:37:18.958Z,13.62
2017-09-30T22:39:46.611Z,13.44
2017-09-30T22:42:14.235Z,13.22
2017-09-30T22:44:41.851Z,13.08
2017-09-30T22:47:09.498Z,13.11
2017-09-30T22:49:37.095Z,13.18
2017-09-30T22:52:04.739Z,13.18
2017-09-30T22:54:32.386Z,13.12
2017-09-30T22:57:00.026Z,12.94
2017-09-30T22:59:27.645Z,12.87
2017-09-30T23:01:55.294Z,12.85
2017-09-30T23:04:22.890Z,12.89
2017-09-30T23:06:50.546Z,12.92
2017-09-30T23:09:18.182Z,13.04
2017-09-30T23:11:45.885Z,13.13
2017-09-30T23:14:13.496Z,13.17
2017-09-30T23:16:41.115Z,13.20
2017-09-30T23:19:08.754Z,13.12
2017-09-30T23:21:36.387Z,13.02
2017-09-30T23:24:04.018Z,12.79
2017-09-30T23:26:31.637Z,12.59
2017-09-30T23:28:59.241Z,12.43
2017-09-30T23:31:26.889Z,12.47
2017-09-30T23:33:54.527Z,12.59
2017-09-30T23:36:22.169Z,12.55
2017-09-30T23:38:49.760Z,12.53
2017-09-30T23:41:17.403Z,12.38
2017-09-30T23:43:45.055Z,12.25
2017-09-30T23:46:12.702Z,12.16
2017-09-30T23:48:40.287Z,12.04
2017-09-30T23:51:07.931Z,11.98
2017-09-30T23:53:35.550Z,12.00
2017-09-30T23:56:03.182Z,12.06
2017-09-30T23:58:30.875Z,12.08
